Time,TemperatureF,DewpointF,PressureIn,WindDirection,WindDirectionDegrees,WindSpeedMPH,WindSpeedGustMPH,Humidity,HourlyPrecipIn,Conditions,Clouds,dailyrainin,SoftwareType,DateUTC
2013-11-03 00:00:00,58.3,34.1,29.83,NNW,330,4.0,4.0,40,0.00,,,0.00,Wunderground v.1.15,2013-11-03 07:00:00,
2013-11-03 00:10:00,58.3,34.1,29.83,NW,318,5.0,5.0,40,0.00,,,0.00,Wunderground v.1.15,2013-11-03 07:10:00,
2013-11-03 00:20:00,58.1,33.9,29.83,NW,315,5.0,5.0,40,0.00,,,0.00,Wunderground v.1.15,2013-11-03 07:20:00,
2013-11-03 00:30:00,57.8,33.6,29.84,NW,319,4.0,5.0,40,0.00,,,0.00,Wunderground v.1.15,2013-11-03 07:30:00,
2013-11-03 00:40:00,57.5,33.3,29.84,NW,318,3.0,3.0,40,0.00,,,0.00,Wunderground v.1.15,2013-11-03 07:40:00,
2013-11-03 00:50:00,57.2,33.7,29.84,NW,311,2.0,2.0,41,0.00,,,0.00,Wunderground v.1.15,2013-11-03 07:50:00,
2013-11-03 01:00:00,56.7,33.8,29.84,NW,311,2.0,2.0,42,0.00,,,0.00,Wunderground v.1.15,2013-11-03 08:00:00,
2013-11-03 01:10:00,56.3,33.5,29.84,NW,313,2.0,2.0,42,0.00,,,0.00,Wunderground v.1.15,2013-11-03 08:10:00,
2013-11-03 01:20:00,56.0,32.6,29.85,NW,318,3.0,3.0,41,0.00,,,0.00,Wunderground v.1.15,2013-11-03 08:20:00,
2013-11-03 01:30:00,55.7,32.3,29.85,NNW,339,3.0,6.0,41,0.00,,,0.00,Wunderground v.1.15,2013-11-03 08:30:00,
2013-11-03 01:40:00,55.4,32.1,29.85,NW,326,3.0,3.0,41,0.00,,,0.00,Wunderground v.1.15,2013-11-03 08:40:00,
2013-11-03 01:50:00,55.1,31.8,29.85,NW,322,2.0,5.0,41,0.00,,,0.00,Wunderground v.1.15,2013-11-03 08:50:00,
2013-11-03 01:00:00,55.0,31.7,29.85,NW,313,3.0,11.0,41,0.00,,,0.00,Wunderground v.1.15,2013-11-03 09:00:00,
2013-11-03 01:10:00,54.8,31.5,29.85,NW,315,2.0,4.0,41,0.00,,,0.00,Wunderground v.1.15,2013-11-03 09:10:00,
2013-11-03 01:20:00,54.7,31.4,29.85,NW,315,1.0,4.0,41,0.00,,,0.00,Wunderground v.1.15,2013-11-03 09:20:00,
2013-11-03 01:30:00,54.5,31.3,29.85,NW,318,2.0,3.0,41,0.00,,,0.00,Wunderground v.1.15,2013-11-03 09:30:00,
2013-11-03 01:40:00,54.5,31.3,29.85,NW,304,2.0,3.0,41,0.00,,,0.00,Wunderground v.1.15,2013-11-03 09:40:00,
2013-11-03 01:50:00,54.4,31.2,29.85,NW,305,2.0,2.0,41,0.00,,,0.00,Wunderground v.1.15,2013-11-03 09:50:00,
2013-11-03 02:00:00,54.1,30.9,29.85,NW,308,1.0,1.0,41,0.00,,,0.00,Wunderground v.1.15,2013-11-03 10:00:00,
2013-11-03 02:10:00,53.9,30.7,29.85,NW,308,2.0,2.0,41,0.00,,,0.00,Wunderground v.1.15,2013-11-03 10:10:00,
2013-11-03 02:20:00,53.8,30.6,29.85,NW,309,3.0,5.0,41,0.00,,,0.00,Wunderground v.1.15,2013-11-03 10:20:00,
2013-11-03 02:30:00,53.6,30.4,29.85,NW,304,3.0,3.0,41,0.00,,,0.00,Wunderground v.1.15,2013-11-03 10:30:00,
2013-11-03 02:40:00,53.5,30.4,29.85,NW,306,2.0,2.0,41,0.00,,,0.00,Wunderground v.1.15,2013-11-03 10:40:00,
2013-11-03 02:50:00,53.3,30.2,29.85,NW,309,3.0,3.0,41,0.00,,,0.00,Wunderground v.1.15,2013-11-03 10:50:00,
2013-11-03 03:00:00,53.1,30.0,29.85,NW,309,1.0,2.0,41,0.00,,,0.00,Wunderground v.1.15,2013-11-03 11:00:00,
2013-11-03 03:10:00,52.6,30.1,29.85,NW,308,1.0,1.0,42,0.00,,,0.00,Wunderground v.1.15,2013-11-03 11:10:00,
2013-11-03 03:20:00,52.3,30.4,29.86,NW,305,1.0,1.0,43,0.00,,,0.00,Wunderground v.1.15,2013-11-03 11:20:00,
2013-11-03 03:30:00,51.9,31.2,29.86,NW,305,1.0,2.0,45,0.00,,,0.00,Wunderground v.1.15,2013-11-03 11:30:00,
2013-11-03 03:40:00,51.4,30.7,29.86,NW,305,1.0,5.0,45,0.00,,,0.00,Wunderground v.1.15,2013-11-03 11:40:00,
2013-11-03 03:50:00,51.0,30.4,29.87,NW,305,1.0,1.0,45,0.00,,,0.00,Wunderground v.1.15,2013-11-03 11:50:00,
2013-11-03 04:00:00,50.8,30.2,29.86,NW,305,1.0,1.0,45,0.00,,,0.00,Wunderground v.1.15,2013-11-03 12:00:00,
2013-11-03 04:10:00,50.5,29.9,29.86,NW,305,1.0,1.0,45,0.00,,,0.00,Wunderground v.1.15,2013-11-03 12:10:00,
2013-11-03 04:20:00,50.4,29.3,29.86,NW,305,1.0,1.0,44,0.00,,,0.00,Wunderground v.1.15,2013-11-03 12:20:00,
2013-11-03 04:30:00,50.1,28.4,29.87,NW,305,1.0,1.0,43,0.00,,,0.00,Wunderground v.1.15,2013-11-03 12:30:00,
2013-11-03 04:40:00,49.9,28.8,29.87,NW,305,0.0,3.0,44,0.00,,,0.00,Wunderground v.1.15,2013-11-03 12:40:00,
2013-11-03 04:50:00,49.5,28.5,29.87,NW,305,1.0,1.0,44,0.00,,,0.00,Wunderground v.1.15,2013-11-03 12:50:00,
2013-11-03 05:00:00,49.2,27.6,29.87,NW,305,1.0,1.0,43,0.00,,,0.00,Wunderground v.1.15,2013-11-03 13:00:00,
2013-11-03 05:10:00,49.1,27.0,29.87,NW,306,1.0,2.0,42,0.00,,,0.00,Wunderground v.1.15,2013-11-03 13:10:00,
2013-11-03 05:20:00,49.2,25.9,29.87,NNW,330,3.0,7.0,40,0.00,,,0.00,Wunderground v.1.15,2013-11-03 13:20:00,
2013-11-03 05:30:00,49.4,24.8,29.87,NW,311,3.0,4.0,38,0.00,,,0.00,Wunderground v.1.15,2013-11-03 13:30:00,
2013-11-03 05:40:00,49.6,25.0,29.87,NW,309,3.0,3.0,38,0.00,,,0.00,Wunderground v.1.15,2013-11-03 13:40:00,
2013-11-03 05:50:00,49.8,24.5,29.88,NW,309,4.0,4.0,37,0.00,,,0.00,Wunderground v.1.15,2013-11-03 13:50:00,
2013-11-03 06:00:00,49.8,25.2,29.88,NW,312,3.0,3.0,38,0.00,,,0.00,Wunderground v.1.15,2013-11-03 14:00:00,
2013-11-03 06:10:00,49.8,25.2,29.88,NW,313,2.0,8.0,38,0.00,,,0.00,Wunderground v.1.15,2013-11-03 14:10:00,
2013-11-03 06:20:00,49.6,25.0,29.88,NW,315,3.0,3.0,38,0.00,,,0.00,Wunderground v.1.15,2013-11-03 14:20:00,
2013-11-03 06:30:00,49.6,25.0,29.88,NW,306,3.0,3.0,38,0.00,,,0.00,Wunderground v.1.15,2013-11-03 14:30:00,
2013-11-03 06:40:00,49.5,25.5,29.88,NNW,333,2.0,2.0,39,0.00,,,0.00,Wunderground v.1.15,2013-11-03 14:40:00,
2013-11-03 06:50:00,49.2,25.9,29.88,NW,312,3.0,5.0,40,0.00,,,0.00,Wunderground v.1.15,2013-11-03 14:50:00,
2013-11-03 07:00:00,49.2,25.9,29.88,NW,325,3.0,6.0,40,0.00,,,0.00,Wunderground v.1.15,2013-11-03 15:00:00,
2013-11-03 07:10:00,49.2,26.5,29.88,NW,306,2.0,3.0,41,0.00,,,0.00,Wunderground v.1.15,2013-11-03 15:10:00,
2013-11-03 07:20:00,49.2,26.5,29.88,NW,323,2.0,4.0,41,0.00,,,0.00,Wunderground v.1.15,2013-11-03 15:20:00,
2013-11-03 07:30:00,49.5,26.1,29.88,NW,311,2.0,6.0,40,0.00,,,0.00,Wunderground v.1.15,2013-11-03 15:30:00,
2013-11-03 07:40:00,49.8,26.4,29.88,NW,306,2.0,2.0,40,0.00,,,0.00,Wunderground v.1.15,2013-11-03 15:40:00,
2013-11-03 07:50:00,50.1,26.1,29.90,NW,306,3.0,12.0,39,0.00,,,0.00,Wunderground v.1.15,2013-11-03 15:50:00,
2013-11-03 08:00:00,50.8,26.7,29.90,NW,322,5.0,7.0,39,0.00,,,0.00,Wunderground v.1.15,2013-11-03 16:00:00,
2013-11-03 08:10:00,51.6,26.8,29.90,NW,318,4.0,4.0,38,0.00,,,0.00,Wunderground v.1.15,2013-11-03 16:10:00,
2013-11-03 08:20:00,52.2,26.7,29.90,NW,308,4.0,4.0,37,0.00,,,0.00,Wunderground v.1.15,2013-11-03 16:20:00,
2013-11-03 08:30:00,52.8,25.9,29.90,NW,304,5.0,5.0,35,0.00,,,0.00,Wunderground v.1.15,2013-11-03 16:30:00,
2013-11-03 08:40:00,52.9,26.0,29.90,NW,311,5.0,5.0,35,0.00,,,0.00,Wunderground v.1.15,2013-11-03 16:40:00,
2013-11-03 08:50:00,53.5,26.5,29.91,NW,313,4.0,5.0,35,0.00,,,0.00,Wunderground v.1.15,2013-11-03 16:50:00,
2013-11-03 09:00:00,54.4,27.3,29.91,NW,304,2.0,7.0,35,0.00,,,0.00,Wunderground v.1.15,2013-11-03 17:00:00,
2013-11-03 09:20:00,55.6,26.2,29.91,NW,318,4.0,4.0,32,0.00,,,0.00,Wunderground v.1.15,2013-11-03 17:20:00,
2013-11-03 09:30:00,55.7,25.5,29.91,WNW,298,8.0,8.0,31,0.00,,,0.00,Wunderground v.1.15,2013-11-03 17:30:00,
2013-11-03 09:40:00,56.2,24.3,29.91,NNW,328,5.0,5.0,29,0.00,,,0.00,Wunderground v.1.15,2013-11-03 17:40:00,
2013-11-03 09:50:00,56.7,24.8,29.91,NW,320,5.0,6.0,29,0.00,,,0.00,Wunderground v.1.15,2013-11-03 17:50:00,
2013-11-03 10:00:00,58.4,25.4,29.92,NW,316,2.0,10.0,28,0.00,,,0.00,Wunderground v.1.15,2013-11-03 18:00:00,
2013-11-03 10:10:00,57.6,24.7,29.92,NW,313,7.0,7.0,28,0.00,,,0.00,Wunderground v.1.15,2013-11-03 18:10:00,
2013-11-03 10:20:00,58.4,24.5,29.92,NW,325,6.0,6.0,27,0.00,,,0.00,Wunderground v.1.15,2013-11-03 18:20:00,
2013-11-03 10:30:00,58.4,25.4,29.92,NW,313,6.0,6.0,28,0.00,,,0.00,Wunderground v.1.15,2013-11-03 18:30:00,
2013-11-03 10:40:00,59.8,25.7,29.92,NW,311,4.0,4.0,27,0.00,,,0.00,Wunderground v.1.15,2013-11-03 18:40:00,
2013-11-03 10:50:00,60.4,25.3,29.92,NW,305,5.0,7.0,26,0.00,,,0.00,Wunderground v.1.15,2013-11-03 18:50:00,
2013-11-03 11:00:00,60.7,24.6,29.91,NW,311,7.0,7.0,25,0.00,,,0.00,Wunderground v.1.15,2013-11-03 19:00:00,
2013-11-03 11:10:00,60.9,24.8,29.91,NW,308,7.0,7.0,25,0.00,,,0.00,Wunderground v.1.15,2013-11-03 19:10:00,
2013-11-03 11:20:00,61.8,26.5,29.91,WNW,296,5.0,10.0,26,0.00,,,0.00,Wunderground v.1.15,2013-11-03 19:20:00,
2013-11-03 11:30:00,62.4,27.0,29.91,NW,306,4.0,4.0,26,0.00,,,0.00,Wunderground v.1.15,2013-11-03 19:30:00,
2013-11-03 11:40:00,62.7,26.3,29.91,NW,305,2.0,5.0,25,0.00,,,0.00,Wunderground v.1.15,2013-11-03 19:40:00,
2013-11-03 11:50:00,62.3,26.0,29.89,NW,309,2.0,2.0,25,0.00,,,0.00,Wunderground v.1.15,2013-11-03 19:50:00,
2013-11-03 12:00:00,64.3,25.7,29.88,North,0,2.0,2.0,23,0.00,,,0.00,Wunderground v.1.15,2013-11-03 20:00:00,
2013-11-03 12:10:00,64.5,24.8,29.88,NW,306,4.0,4.0,22,0.00,,,0.00,Wunderground v.1.15,2013-11-03 20:10:00,
2013-11-03 12:20:00,63.5,25.0,29.88,WNW,284,3.0,3.0,23,0.00,,,0.00,Wunderground v.1.15,2013-11-03 20:20:00,
2013-11-03 12:30:00,63.2,24.7,29.87,WNW,296,2.0,2.0,23,0.00,,,0.00,Wunderground v.1.15,2013-11-03 20:30:00,
2013-11-03 12:40:00,63.2,24.7,29.87,NW,309,4.0,4.0,23,0.00,,,0.00,Wunderground v.1.15,2013-11-03 20:40:00,
2013-11-03 12:50:00,63.4,24.9,29.86,WNW,296,3.0,3.0,23,0.00,,,0.00,Wunderground v.1.15,2013-11-03 20:50:00,
2013-11-03 13:00:00,64.0,25.4,29.86,NW,322,2.0,2.0,23,0.00,,,0.00,Wunderground v.1.15,2013-11-03 21:00:00,
2013-11-03 13:10:00,64.7,24.9,29.86,NW,323,3.0,3.0,22,0.00,,,0.00,Wunderground v.1.15,2013-11-03 21:10:00,
2013-11-03 13:20:00,65.0,24.1,29.85,NNW,333,2.0,2.0,21,0.00,,,0.00,Wunderground v.1.15,2013-11-03 21:20:00,
2013-11-03 13:30:00,64.5,23.7,29.85,North,356,2.0,2.0,21,0.00,,,0.00,Wunderground v.1.15,2013-11-03 21:30:00,
2013-11-03 13:40:00,65.0,24.1,29.85,WNW,294,3.0,3.0,21,0.00,,,0.00,Wunderground v.1.15,2013-11-03 21:40:00,
2013-11-03 13:50:00,66.0,24.9,29.85,NW,308,2.0,2.0,21,0.00,,,0.00,Wunderground v.1.15,2013-11-03 21:50:00,
2013-11-03 14:00:00,66.4,25.2,29.84,WNW,294,3.0,3.0,21,0.00,,,0.00,Wunderground v.1.15,2013-11-03 22:00:00,
2013-11-03 14:10:00,65.6,24.6,29.84,WNW,301,5.0,5.0,21,0.00,,,0.00,Wunderground v.1.15,2013-11-03 22:10:00,
2013-11-03 14:20:00,65.2,25.4,29.84,WNW,296,5.0,5.0,22,0.00,,,0.00,Wunderground v.1.15,2013-11-03 22:20:00,
2013-11-03 14:30:00,65.5,26.7,29.83,NW,312,4.0,5.0,23,0.00,,,0.00,Wunderground v.1.15,2013-11-03 22:30:00,
2013-11-03 14:40:00,65.8,24.7,29.83,NNW,346,2.0,2.0,21,0.00,,,0.00,Wunderground v.1.15,2013-11-03 22:40:00,
2013-11-03 14:50:00,65.5,24.5,29.83,WNW,285,2.0,2.0,21,0.00,,,0.00,Wunderground v.1.15,2013-11-03 22:50:00,
2013-11-03 15:00:00,65.2,25.4,29.83,WNW,301,2.0,2.0,22,0.00,,,0.00,Wunderground v.1.15,2013-11-03 23:00:00,
2013-11-03 15:10:00,64.8,25.0,29.83,WNW,301,2.0,6.0,22,0.00,,,0.00,Wunderground v.1.15,2013-11-03 23:10:00,
2013-11-03 15:20:00,64.8,25.0,29.83,NW,311,2.0,2.0,22,0.00,,,0.00,Wunderground v.1.15,2013-11-03 23:20:00,
2013-11-03 15:30:00,64.3,24.6,29.82,NW,313,2.0,2.0,22,0.00,,,0.00,Wunderground v.1.15,2013-11-03 23:30:00,
2013-11-03 15:40:00,64.0,24.4,29.82,WNW,295,2.0,2.0,22,0.00,,,0.00,Wunderground v.1.15,2013-11-03 23:40:00,
2013-11-03 15:50:00,63.7,25.2,29.82,NW,312,1.0,1.0,23,0.00,,,0.00,Wunderground v.1.15,2013-11-03 23:50:00,
2013-11-03 16:00:00,63.5,25.0,29.82,NW,312,0.0,0.0,23,0.00,,,0.00,Wunderground v.1.15,2013-11-04 00:00:00,
2013-11-03 16:10:00,63.2,23.7,29.82,NW,309,2.0,6.0,22,0.00,,,0.00,Wunderground v.1.15,2013-11-04 00:10:00,
2013-11-03 16:20:00,62.9,23.4,29.82,WNW,301,3.0,3.0,22,0.00,,,0.00,Wunderground v.1.15,2013-11-04 00:20:00,
2013-11-03 16:30:00,62.4,23.0,29.81,North,0,3.0,3.0,22,0.00,,,0.00,Wunderground v.1.15,2013-11-04 00:30:00,
2013-11-03 16:40:00,62.0,22.7,29.81,NW,309,3.0,6.0,22,0.00,,,0.00,Wunderground v.1.15,2013-11-04 00:40:00,
2013-11-03 16:50:00,61.6,23.4,29.81,WNW,302,1.0,3.0,23,0.00,,,0.00,Wunderground v.1.15,2013-11-04 00:50:00,
2013-11-03 17:00:00,61.2,23.1,29.81,NW,322,3.0,3.0,23,0.00,,,0.00,Wunderground v.1.15,2013-11-04 01:00:00,
2013-11-03 17:10:00,60.9,23.8,29.81,NW,313,2.0,2.0,24,0.00,,,0.00,Wunderground v.1.15,2013-11-04 01:10:00,
2013-11-03 17:20:00,60.4,23.4,29.81,NW,304,2.0,2.0,24,0.00,,,0.00,Wunderground v.1.15,2013-11-04 01:20:00,
2013-11-03 17:30:00,60.1,24.1,29.81,NW,323,1.0,1.0,25,0.00,,,0.00,Wunderground v.1.15,2013-11-04 01:30:00,
2013-11-03 17:40:00,59.6,23.7,29.81,NW,319,1.0,5.0,25,0.00,,,0.00,Wunderground v.1.15,2013-11-04 01:40:00,
2013-11-03 17:50:00,59.3,24.4,29.80,NW,313,2.0,3.0,26,0.00,,,0.00,Wunderground v.1.15,2013-11-04 01:50:00,
2013-11-03 18:00:00,59.0,24.1,29.80,NW,308,2.0,2.0,26,0.00,,,0.00,Wunderground v.1.15,2013-11-04 02:00:00,
2013-11-03 18:10:00,58.7,23.9,29.80,NW,308,1.0,1.0,26,0.00,,,0.00,Wunderground v.1.15,2013-11-04 02:10:00,
2013-11-03 18:20:00,58.4,24.5,29.81,NW,308,0.0,0.0,27,0.00,,,0.00,Wunderground v.1.15,2013-11-04 02:20:00,
2013-11-03 18:30:00,58.3,24.4,29.81,NW,308,0.0,0.0,27,0.00,,,0.00,Wunderground v.1.15,2013-11-04 02:30:00,
2013-11-03 18:40:00,57.6,24.7,29.81,NW,308,0.0,0.0,28,0.00,,,0.00,Wunderground v.1.15,2013-11-04 02:40:00,
2013-11-03 18:50:00,56.2,25.9,29.81,NW,308,0.0,0.0,31,0.00,,,0.00,Wunderground v.1.15,2013-11-04 02:50:00,
2013-11-03 19:00:00,55.7,26.3,29.81,NW,308,0.0,0.0,32,0.00,,,0.00,Wunderground v.1.15,2013-11-04 03:00:00,
2013-11-03 19:10:00,55.4,26.0,29.81,NW,308,0.0,0.0,32,0.00,,,0.00,Wunderground v.1.15,2013-11-04 03:10:00,
2013-11-03 19:20:00,55.1,27.2,29.81,NW,308,0.0,0.0,34,0.00,,,0.00,Wunderground v.1.15,2013-11-04 03:20:00,
2013-11-03 19:30:00,55.0,27.1,29.81,NW,308,0.0,0.0,34,0.00,,,0.00,Wunderground v.1.15,2013-11-04 03:30:00,
2013-11-03 19:40:00,54.8,26.9,29.81,NW,308,0.0,0.0,34,0.00,,,0.00,Wunderground v.1.15,2013-11-04 03:40:00,
2013-11-03 19:50:00,54.7,26.8,29.81,NW,308,0.0,0.0,34,0.00,,,0.00,Wunderground v.1.15,2013-11-04 03:50:00,
2013-11-03 20:00:00,54.5,27.4,29.81,NW,308,0.0,0.0,35,0.00,,,0.00,Wunderground v.1.15,2013-11-04 04:00:00,
2013-11-03 20:10:00,54.2,27.1,29.81,NW,308,0.0,0.0,35,0.00,,,0.00,Wunderground v.1.15,2013-11-04 04:10:00,
2013-11-03 20:20:00,53.9,27.5,29.81,NW,308,0.0,0.0,36,0.00,,,0.00,Wunderground v.1.15,2013-11-04 04:20:00,
2013-11-03 20:30:00,53.5,27.8,29.81,NW,308,0.0,0.0,37,0.00,,,0.00,Wunderground v.1.15,2013-11-04 04:30:00,
2013-11-03 20:40:00,53.2,27.6,29.81,NW,308,0.0,0.0,37,0.00,,,0.00,Wunderground v.1.15,2013-11-04 04:40:00,
2013-11-03 20:50:00,52.9,28.0,29.81,NW,308,0.0,0.0,38,0.00,,,0.00,Wunderground v.1.15,2013-11-04 04:50:00,
2013-11-03 21:00:00,52.8,27.9,29.81,NW,308,0.0,0.0,38,0.00,,,0.00,Wunderground v.1.15,2013-11-04 05:00:00,
2013-11-03 21:10:00,52.6,27.7,29.81,NW,308,0.0,0.0,38,0.00,,,0.00,Wunderground v.1.15,2013-11-04 05:10:00,
2013-11-03 21:20:00,52.5,27.6,29.81,NW,308,0.0,0.0,38,0.00,,,0.00,Wunderground v.1.15,2013-11-04 05:20:00,
2013-11-03 21:30:00,52.3,27.4,29.81,NW,308,0.0,0.0,38,0.00,,,0.00,Wunderground v.1.15,2013-11-04 05:30:00,
2013-11-03 21:40:00,52.2,27.3,29.81,NW,308,0.0,0.0,38,0.00,,,0.00,Wunderground v.1.15,2013-11-04 05:40:00,
2013-11-03 21:50:00,51.9,27.7,29.81,NW,308,0.0,0.0,39,0.00,,,0.00,Wunderground v.1.15,2013-11-04 05:50:00,
2013-11-03 22:00:00,51.6,28.0,29.81,NW,308,0.0,0.0,40,0.00,,,0.00,Wunderground v.1.15,2013-11-04 06:00:00,
2013-11-03 22:10:00,51.3,27.8,29.81,NW,308,0.0,0.0,40,0.00,,,0.00,Wunderground v.1.15,2013-11-04 06:10:00,
2013-11-03 22:20:00,51.1,27.6,29.81,NW,308,0.0,0.0,40,0.00,,,0.00,Wunderground v.1.15,2013-11-04 06:20:00,
2013-11-03 22:30:00,51.3,27.8,29.80,NW,308,0.0,0.0,40,0.00,,,0.00,Wunderground v.1.15,2013-11-04 06:30:00,
2013-11-03 22:40:00,51.3,27.8,29.80,NW,308,0.0,0.0,40,0.00,,,0.00,Wunderground v.1.15,2013-11-04 06:40:00,
2013-11-03 22:50:00,51.1,27.6,29.80,NW,308,0.0,0.0,40,0.00,,,0.00,Wunderground v.1.15,2013-11-04 06:50:00,
2013-11-03 23:00:00,51.0,27.5,29.80,NW,308,0.0,0.0,40,0.00,,,0.00,Wunderground v.1.15,2013-11-04 07:00:00,
2013-11-03 23:10:00,50.8,27.3,29.80,NW,308,0.0,0.0,40,0.00,,,0.00,Wunderground v.1.15,2013-11-04 07:10:00,
2013-11-03 23:20:00,50.5,27.7,29.80,NW,308,0.0,0.0,41,0.00,,,0.00,Wunderground v.1.15,2013-11-04 07:20:00,
2013-11-03 23:30:00,50.4,27.6,29.79,NW,308,0.0,0.0,41,0.00,,,0.00,Wunderground v.1.15,2013-11-04 07:30:00,
2013-11-03 23:40:00,50.1,27.9,29.79,NW,308,0.0,0.0,42,0.00,,,0.00,Wunderground v.1.15,2013-11-04 07:40:00,
2013-11-03 23:50:00,49.9,27.7,29.79,NW,308,0.0,0.0,42,0.00,,,0.00,Wunderground v.1.15,2013-11-04 07:50:00,